createdAt,value
2023-02-19T00:01:08.205Z,101065.16
2023-02-19T00:06:06.894Z,101052.44
2023-02-19T00:11:08.152Z,101045.91
2023-02-19T00:16:08.608Z,101046.31
2023-02-19T00:21:06.853Z,101032.69
2023-02-19T00:26:17.569Z,101039.72
2023-02-19T00:31:18.568Z,101043.50
2023-02-19T00:36:15.567Z,101040.00
2023-02-19T00:41:19.303Z,101011.59
2023-02-19T00:46:17.250Z,101030.09
2023-02-19T00:51:14.392Z,101023.47
2023-02-19T00:56:16.486Z,101017.56
2023-02-19T01:01:13.949Z,100998.75
2023-02-19T01:06:11.324Z,101010.72
2023-02-19T01:11:08.594Z,101020.94
2023-02-19T01:16:06.177Z,101024.25
2023-02-19T01:21:06.524Z,101028.34
2023-02-19T01:26:04.399Z,101034.06
2023-02-19T01:31:02.257Z,101028.25
2023-02-19T01:35:59.316Z,101022.09
2023-02-19T01:40:56.986Z,101021.19
2023-02-19T01:45:53.740Z,101011.03
2023-02-19T01:50:53.881Z,101018.59
2023-02-19T01:55:52.758Z,101018.25
2023-02-19T02:00:51.223Z,101034.75
2023-02-19T02:05:51.801Z,101033.19
2023-02-19T02:10:49.893Z,101033.94
2023-02-19T02:15:50.853Z,101039.88
2023-02-19T02:20:58.215Z,101023.09
2023-02-19T02:26:08.575Z,101037.00
2023-02-19T02:31:08.900Z,101037.47
2023-02-19T02:36:08.008Z,101058.28
2023-02-19T02:41:06.008Z,101059.56
2023-02-19T02:46:02.852Z,101072.16
2023-02-19T02:51:08.632Z,101076.59
2023-02-19T02:56:12.410Z,101074.22
2023-02-19T03:01:28.988Z,101087.28
2023-02-19T03:06:28.691Z,101081.03
2023-02-19T03:11:43.699Z,101084.13
2023-02-19T03:17:01.518Z,101089.34
2023-02-19T03:22:00.435Z,101102.31
2023-02-19T03:26:59.259Z,101110.28
2023-02-19T03:32:02.265Z,101105.78
2023-02-19T03:37:06.674Z,101102.09
2023-02-19T03:42:08.792Z,101112.81
2023-02-19T03:47:09.921Z,101107.28
2023-02-19T03:52:11.416Z,101102.72
2023-02-19T03:57:14.114Z,101116.63
2023-02-19T04:02:13.553Z,101124.75
2023-02-19T04:07:11.587Z,101126.47
2023-02-19T04:12:10.926Z,101140.44
2023-02-19T04:17:10.873Z,101137.53
2023-02-19T04:22:07.822Z,101108.63
2023-02-19T04:27:05.996Z,101126.53
2023-02-19T04:32:02.776Z,101137.97
2023-02-19T04:36:59.671Z,101134.19
2023-02-19T04:41:57.661Z,101134.91
2023-02-19T04:46:55.275Z,101144.75
2023-02-19T04:51:51.917Z,101151.13
2023-02-19T04:56:50.108Z,101149.44
2023-02-19T05:01:49.699Z,101156.41
2023-02-19T05:06:46.938Z,101163.09
2023-02-19T05:11:43.472Z,101178.00
2023-02-19T05:16:40.046Z,101174.41
2023-02-19T05:21:36.658Z,101181.41
2023-02-19T05:26:34.149Z,101183.91
2023-02-19T05:31:33.412Z,101188.75
2023-02-19T05:36:30.536Z,101213.41
2023-02-19T05:41:27.933Z,101227.59
2023-02-19T05:46:27.366Z,101235.53
2023-02-19T05:51:25.105Z,101242.22
2023-02-19T05:56:28.413Z,101251.53
2023-02-19T06:01:26.742Z,101257.09
2023-02-19T06:06:23.769Z,101271.66
2023-02-19T06:11:22.364Z,101269.72
2023-02-19T06:16:19.212Z,101261.34
2023-02-19T06:21:17.123Z,101285.50
2023-02-19T06:26:15.216Z,101289.28
2023-02-19T06:31:17.468Z,101296.16
2023-02-19T06:36:15.899Z,101291.56
2023-02-19T06:41:13.986Z,101280.31
2023-02-19T06:46:11.611Z,101293.97
2023-02-19T06:51:11.340Z,101298.94
2023-02-19T06:56:21.681Z,101307.97
2023-02-19T07:01:29.897Z,101318.03
2023-02-19T07:06:27.265Z,101309.91
2023-02-19T07:11:24.744Z,101307.06
2023-02-19T07:16:22.734Z,101302.44
2023-02-19T07:21:22.045Z,101298.72
2023-02-19T07:26:19.303Z,101279.69
2023-02-19T07:31:16.956Z,101282.09
2023-02-19T07:36:14.937Z,101268.63
2023-02-19T07:41:14.511Z,101277.16
2023-02-19T07:46:13.083Z,101265.31
2023-02-19T07:51:12.035Z,101274.41
2023-02-19T07:56:14.364Z,101269.09
2023-02-19T08:01:18.128Z,101277.47
2023-02-19T08:06:18.324Z,101273.72
2023-02-19T08:11:34.278Z,101268.13
2023-02-19T08:16:42.550Z,101268.00
2023-02-19T08:21:39.881Z,101261.44
2023-02-19T08:26:52.544Z,101254.13
2023-02-19T08:31:52.306Z,101258.53
2023-02-19T08:36:49.331Z,101262.31
2023-02-19T08:41:47.329Z,101279.34
2023-02-19T08:46:43.969Z,101252.06
2023-02-19T08:51:40.687Z,101248.94
2023-02-19T08:56:40.305Z,101257.31
2023-02-19T09:01:37.790Z,101263.31
2023-02-19T09:06:34.493Z,101259.41
2023-02-19T09:11:31.258Z,101247.97
2023-02-19T09:16:28.292Z,101253.78
2023-02-19T09:21:28.972Z,101242.72
2023-02-19T09:26:28.595Z,101225.56
2023-02-19T09:31:25.701Z,101219.88
2023-02-19T09:36:23.272Z,101234.94
2023-02-19T09:41:24.169Z,101227.06
2023-02-19T09:46:27.864Z,101221.47
2023-02-19T09:51:27.061Z,101206.81
2023-02-19T09:56:25.771Z,101210.97
2023-02-19T10:01:27.015Z,101187.72
2023-02-19T10:06:27.162Z,101194.06
2023-02-19T10:11:25.355Z,101192.28
2023-02-19T10:16:24.667Z,101182.72
2023-02-19T10:21:22.608Z,101179.78
2023-02-19T10:26:19.487Z,101184.19
2023-02-19T10:31:20.373Z,101170.63
2023-02-19T10:36:25.362Z,101173.91
2023-02-19T10:41:27.238Z,101129.56
2023-02-19T10:46:27.149Z,101137.63
2023-02-19T10:51:30.702Z,101138.31
2023-02-19T10:56:29.435Z,101115.66
2023-02-19T11:01:31.397Z,101107.56
2023-02-19T11:06:28.245Z,101090.44
2023-02-19T11:11:27.133Z,101090.00
2023-02-19T11:16:24.411Z,101099.66
2023-02-19T11:21:29.197Z,101097.13
2023-02-19T11:26:27.188Z,101092.84
2023-02-19T11:31:25.554Z,101078.06
2023-02-19T11:36:30.490Z,101082.59
2023-02-19T11:41:45.053Z,101066.81
2023-02-19T11:46:46.862Z,101087.91
2023-02-19T11:51:53.212Z,101097.13
2023-02-19T11:57:02.689Z,101077.16
2023-02-19T12:02:18.491Z,101059.72
2023-02-19T12:07:22.207Z,101065.50
2023-02-19T12:12:31.427Z,101057.75
2023-02-19T12:17:46.076Z,101022.97
2023-02-19T12:22:53.432Z,101051.59
2023-02-19T12:27:58.820Z,101046.72
2023-02-19T12:33:11.046Z,101039.97
2023-02-19T12:38:18.214Z,101026.75
2023-02-19T12:43:17.891Z,101026.59
2023-02-19T12:48:18.880Z,101028.72
2023-02-19T12:53:23.746Z,101027.91
2023-02-19T12:58:24.072Z,101014.44
2023-02-19T13:03:23.786Z,101020.59
2023-02-19T13:08:24.286Z,100999.81
2023-02-19T13:13:24.002Z,100992.50
2023-02-19T13:18:24.068Z,100990.53
2023-02-19T13:23:42.295Z,100992.66
2023-02-19T13:28:44.895Z,100964.34
2023-02-19T13:33:47.443Z,100961.00
2023-02-19T13:38:47.312Z,100980.69
2023-02-19T13:44:18.462Z,100961.81
2023-02-19T13:50:07.058Z,100949.44
2023-02-19T13:55:25.654Z,100956.78
2023-02-19T14:00:49.386Z,100963.63
2023-02-19T14:06:01.023Z,100960.78
2023-02-19T14:11:01.757Z,100962.09
2023-02-19T14:15:59.353Z,100968.41
2023-02-19T14:21:07.156Z,100960.03
2023-02-19T14:26:06.906Z,100938.06
2023-02-19T14:31:09.708Z,100945.47
2023-02-19T14:36:14.316Z,100947.03
2023-02-19T14:41:13.013Z,100948.66
2023-02-19T14:46:15.658Z,100937.47
2023-02-19T14:51:13.963Z,100930.66
2023-02-19T14:56:18.442Z,100918.06
2023-02-19T15:01:28.440Z,100945.78
2023-02-19T15:06:25.876Z,100944.31
2023-02-19T15:11:23.738Z,100946.63
2023-02-19T15:16:24.185Z,100942.84
2023-02-19T15:21:25.679Z,100947.84
2023-02-19T15:26:23.414Z,100941.50
2023-02-19T15:31:20.285Z,100935.38
2023-02-19T15:36:20.617Z,100925.88
2023-02-19T15:41:19.914Z,100941.22
2023-02-19T15:46:19.320Z,100934.06
2023-02-19T15:51:18.416Z,100943.78
2023-02-19T15:56:18.306Z,100948.31
2023-02-19T16:01:19.516Z,100959.91
2023-02-19T16:06:17.254Z,100968.78
2023-02-19T16:11:27.378Z,100980.47
2023-02-19T16:16:29.266Z,100973.06
2023-02-19T16:21:27.203Z,100969.47
2023-02-19T16:26:23.942Z,100967.47
2023-02-19T16:31:21.833Z,100959.31
2023-02-19T16:36:21.248Z,100986.59
2023-02-19T16:41:21.014Z,100968.56
2023-02-19T16:46:17.832Z,100967.03
2023-02-19T16:51:29.696Z,100971.38
2023-02-19T16:56:26.699Z,100981.72
2023-02-19T17:01:23.616Z,100985.38
2023-02-19T17:06:23.242Z,100980.88
2023-02-19T17:11:28.540Z,100977.06
2023-02-19T17:16:39.003Z,100971.06
2023-02-19T17:21:35.919Z,100962.56
2023-02-19T17:26:33.348Z,100967.13
2023-02-19T17:31:30.145Z,100960.19
2023-02-19T17:36:30.095Z,100965.28
2023-02-19T17:41:26.844Z,100961.91
2023-02-19T17:46:25.168Z,100958.91
2023-02-19T17:51:22.093Z,100963.31
2023-02-19T17:56:19.681Z,100961.91
2023-02-19T18:01:16.527Z,100965.22
2023-02-19T18:06:14.062Z,100959.28
2023-02-19T18:11:11.083Z,100977.19
2023-02-19T18:16:09.367Z,100966.03
2023-02-19T18:21:08.088Z,100972.22
2023-02-19T18:26:10.407Z,100956.03
2023-02-19T18:31:07.478Z,100970.88
2023-02-19T18:36:09.608Z,100983.03
2023-02-19T18:41:06.319Z,100975.94
2023-02-19T18:46:06.726Z,100976.03
2023-02-19T18:51:03.669Z,100986.38
2023-02-19T18:56:01.592Z,100982.81
2023-02-19T19:00:58.725Z,100993.00
2023-02-19T19:05:56.360Z,100983.78
2023-02-19T19:10:53.167Z,100977.59
2023-02-19T19:15:50.428Z,100986.81
2023-02-19T19:20:47.122Z,101000.69
2023-02-19T19:25:44.423Z,101005.56
2023-02-19T19:30:41.502Z,101007.50
2023-02-19T19:35:38.684Z,101010.13
2023-02-19T19:40:35.589Z,100985.44
2023-02-19T19:45:34.684Z,101010.78
2023-02-19T19:50:34.805Z,101003.13
2023-02-19T19:55:35.347Z,101004.00
2023-02-19T20:00:34.157Z,101014.66
2023-02-19T20:05:31.271Z,101022.56
2023-02-19T20:10:28.304Z,101042.69
2023-02-19T20:15:27.258Z,101044.00
2023-02-19T20:20:24.800Z,101038.78
2023-02-19T20:25:22.154Z,101045.38
2023-02-19T20:30:22.142Z,101043.66
2023-02-19T20:35:22.017Z,101041.38
2023-02-19T20:40:19.485Z,101040.06
2023-02-19T20:45:16.458Z,101047.31
2023-02-19T20:50:13.319Z,101048.09
2023-02-19T20:55:10.337Z,101042.53
2023-02-19T21:00:08.880Z,101032.69
2023-02-19T21:05:11.433Z,101056.84
2023-02-19T21:10:10.456Z,101057.25
2023-02-19T21:15:08.803Z,101052.38
2023-02-19T21:20:06.248Z,101063.09
2023-02-19T21:25:03.069Z,101077.22
2023-02-19T21:29:59.938Z,101085.66
2023-02-19T21:35:00.590Z,101091.22
2023-02-19T21:39:59.774Z,101087.56
2023-02-19T21:44:58.328Z,101086.25
2023-02-19T21:49:55.087Z,101076.69
2023-02-19T21:54:52.993Z,101087.44
2023-02-19T21:59:50.214Z,101070.34
2023-02-19T22:04:53.208Z,101096.78
2023-02-19T22:09:50.510Z,101093.94
2023-02-19T22:14:47.792Z,101095.72
2023-02-19T22:19:46.524Z,101100.69
2023-02-19T22:24:43.222Z,101102.38
2023-02-19T22:29:39.941Z,101101.09
2023-02-19T22:34:40.444Z,101105.69
2023-02-19T22:39:37.544Z,101117.00
2023-02-19T22:44:34.794Z,101101.78
2023-02-19T22:49:31.428Z,101114.84
2023-02-19T22:54:28.959Z,101106.53
2023-02-19T22:59:25.621Z,101112.84
2023-02-19T23:04:23.332Z,101109.69
2023-02-19T23:09:21.712Z,101079.53
2023-02-19T23:14:19.819Z,101096.97
2023-02-19T23:19:16.450Z,101102.31
2023-02-19T23:24:13.938Z,101095.63
2023-02-19T23:29:10.959Z,101094.66
2023-02-19T23:34:10.520Z,101103.97
2023-02-19T23:39:07.494Z,101103.75
2023-02-19T23:44:04.243Z,101105.84
2023-02-19T23:49:00.864Z,101112.50
2023-02-19T23:53:58.117Z,101105.47
2023-02-19T23:58:54.806Z,101120.06
